Aeroporto :
LOGIN :

Iscrizione | Disclaimer

   EN    FR    IT 

 










Sommario :    VFR   VFR Marginale   IFR   IFR Intensivo   IFR Molto Intensivo
Visibilità : 
Base nubi : 
>= 8 km
>= 3000ft
5 / 8 km
1000 / 3000 ft
1500m / 5 km
500 / 1000 ft
800 / 1500m
200 / 500 ft
< 800m
< 200 ft
Simboli :   Temporali  Nebbia  Neve Forte  Precipitazioni Forti  Vento > 20 kt
SIGMETs :   Varie  Temporali  Ghiacco  Turbolenza  Onda orograficha  Ceneri Vulcaniche






- Altitudine del aeroporto : 295 ft
- Codice IATA : BWE


EDVE - Braunschweig

ULTIMO METAR :
  • 221320Z 27014KT 9999 -RA BKN023 OVC030 09/06 Q1009

METARs OBSOLETI :
  • 221250Z 27016KT 9999 -SHRA OVC028 09/06 Q1009
  • 221220Z 26018G35KT 9999 VCSH OVC031 09/05 Q1008
  • 221150Z 25020G30KT 9999 OVC031 10/04 Q1008
  • 221120Z 26019G32KT 9999 BKN033 10/04 Q1008
  • 221050Z 25019KT 9999 SCT033 10/04 Q1008

TAF TAF EDVE
Valido dal 22 a 12 ore il 22 a 21 ore UTC


221100Z 2212/2221 25015G30KT 9999 SCT020 BKN030
TEMPO 2212/2216 27020G35KT SHRA SCT015CB
PROB30
TEMPO 2212/2215 20025G45KT 3500 SHRA BKN010CB
BECMG 2219/2221 26008KT



MetMap, La meteo Aeronautica in un colpo d'occhio ! - Copyright ORBIFLY Dicembre 2007 - Disclaimer

ORBIFLY MET'MAP TEAM :

Programmazione e sviluppo : Alexandra Zaïnal
Concezione : Baudouin d'Aumeries
Aiuto per la programmazione : Marc-Olivier Méhu
Supporto tecnico e logistico : Manuel Goepfert
Aiuto per la traduzione : Arnaldo La Scala

Contatto : metmap@orbifly.com




FONTI E CREDITI :

   NOAA